Ada, Oklahoma
Current Conditions -  °F | °C
As of 9:35 AM on Thursday 30 Oct 2014 (Local Time) from KADH Reporting Station
Scattered Clouds Scattered Clouds  
Wind Chill: 17°   Ceiling: Unl
Heat Index: 17°   Visibility: 10mi
Dew Point:   Wind: 10mph
Humidity: 55%   Direction: 200°SSW
Pressure: 30.16"   Gusts: NA
Location:  34.78°N, 96.68°W
Report Text: KADH 301435Z AUTO 20009KT 10SM SCT090 17/08 A3016 RMK AO2
Loading
Personal Weather Stations






























Interactive Weather Map New forecast layout! Learn more

10-Day Weather Forecast

Advertisements
Track Severe Weather on mobile